Time;durP1;ratioP1;P1;durP2;ratioP2;P2;SDS_P1;SDS_P2;PMS_P1;PMS_P2;Temp;Humidity;BMP_temperature;BMP_pressure;BME280_temperature;BME280_humidity;BME280_pressure;Samples;Min_cycle;Max_cycle;Signal;HPM_P1;HPM_P2
2021/05/27 00:00:44;;;;;;;3.00;1.70;;;;;;;9.55;78.01;100104.88;10286029;28;20491;-57
2021/05/27 00:05:45;;;;;;;5.03;2.00;;;;;;;9.48;78.69;100095.69;10283641;28;20428;-58
2021/05/27 00:10:47;;;;;;;2.33;1.60;;;;;;;9.59;78.17;100088.69;10284045;28;20042;-57
2021/05/27 00:15:48;;;;;;;2.33;2.00;;;;;;;9.47;78.33;100104.66;10268275;28;20046;-56
2021/05/27 00:20:50;;;;;;;2.42;2.08;;;;;;;9.36;78.73;100091.34;10284781;28;20511;-58
2021/05/27 00:25:51;;;;;;;4.15;2.13;;;;;;;9.43;78.60;100103.19;10275766;28;20085;-57
2021/05/27 00:30:52;;;;;;;4.43;2.60;;;;;;;9.42;78.67;100098.84;10297421;28;20070;-57
2021/05/27 00:35:54;;;;;;;2.95;2.13;;;;;;;9.30;79.17;100091.84;10299105;28;20077;-57
2021/05/27 00:40:55;;;;;;;2.63;2.35;;;;;;;9.32;78.94;100104.03;10302434;28;20159;-56
2021/05/27 00:45:57;;;;;;;4.20;2.20;;;;;;;9.34;78.92;100104.75;10301131;28;20233;-55
2021/05/27 00:50:59;;;;;;;2.67;2.10;;;;;;;9.34;79.25;100099.44;10299193;28;20137;-56
2021/05/27 00:56:00;;;;;;;4.50;2.63;;;;;;;9.29;78.96;100096.31;10301511;28;20058;-58
2021/05/27 01:01:02;;;;;;;3.08;2.40;;;;;;;9.54;78.60;100121.78;10294294;28;20054;-57
2021/05/27 01:06:04;;;;;;;2.35;2.05;;;;;;;9.58;78.00;100127.72;10305175;28;20073;-55
2021/05/27 01:11:05;;;;;;;4.82;2.35;;;;;;;9.62;78.47;100112.38;10301696;28;20058;-55
2021/05/27 01:16:13;;;;;;;3.60;2.33;;;;;;;9.55;77.93;100107.53;10299301;28;20085;-58
2021/05/27 01:21:16;;;;;;;3.35;2.13;;;;;;;9.67;77.70;100115.53;10301337;28;20507;-57
2021/05/27 01:26:17;;;;;;;3.13;2.30;;;;;;;9.63;77.09;100122.03;10302829;28;20453;-55
2021/05/27 01:31:18;;;;;;;2.65;2.40;;;;;;;9.49;77.62;100116.00;10296958;28;20518;-58
2021/05/27 01:36:20;;;;;;;3.58;1.88;;;;;;;9.60;77.92;100124.94;10288071;28;20078;-59
2021/05/27 01:41:21;;;;;;;2.65;2.03;;;;;;;9.49;78.51;100117.81;10286515;28;20144;-55
2021/05/27 01:46:23;;;;;;;2.35;1.92;;;;;;;9.55;78.90;100131.47;10286814;28;20104;-59
2021/05/27 01:51:24;;;;;;;2.83;2.30;;;;;;;9.58;78.44;100138.34;10297914;28;20054;-57
2021/05/27 01:56:25;;;;;;;3.53;2.08;;;;;;;9.58;77.97;100121.53;10299022;28;20082;-60
2021/05/27 02:01:27;;;;;;;4.93;2.10;;;;;;;9.77;77.12;100142.22;10296516;28;20214;-57
2021/05/27 02:06:28;;;;;;;3.47;2.13;;;;;;;9.84;78.13;100138.94;10296695;28;20060;-60
2021/05/27 02:11:30;;;;;;;2.42;1.90;;;;;;;9.80;77.34;100136.66;10289691;28;20497;-57
2021/05/27 02:16:32;;;;;;;3.67;2.33;;;;;;;9.87;76.83;100133.38;10289654;28;20061;-61
2021/05/27 02:21:34;;;;;;;3.60;2.30;;;;;;;9.80;77.20;100137.50;10291708;28;20646;-56
2021/05/27 02:26:36;;;;;;;4.65;1.90;;;;;;;9.89;77.00;100130.59;10293219;28;20546;-59
2021/05/27 02:31:38;;;;;;;3.67;1.85;;;;;;;9.70;77.89;100137.38;10293248;28;20042;-57
2021/05/27 02:36:40;;;;;;;3.92;2.03;;;;;;;9.69;78.24;100140.16;10291209;28;20074;-57
2021/05/27 02:41:41;;;;;;;3.17;2.00;;;;;;;9.68;78.42;100133.16;10293420;28;20046;-56
2021/05/27 02:46:43;;;;;;;2.85;2.30;;;;;;;9.60;79.21;100131.09;10286457;28;20051;-56
2021/05/27 02:51:44;;;;;;;3.00;2.25;;;;;;;9.72;79.26;100134.59;10278566;28;20441;-58
2021/05/27 02:56:46;;;;;;;3.28;2.35;;;;;;;9.43;79.48;100127.09;10280711;28;20133;-60
2021/05/27 03:01:47;;;;;;;4.70;2.53;;;;;;;9.45;80.32;100132.31;10289697;28;20082;-59
2021/05/27 03:06:49;;;;;;;3.22;2.53;;;;;;;9.44;80.54;100126.13;10280267;28;20496;-58
2021/05/27 03:11:53;;;;;;;5.30;3.38;;;;;;;9.42;81.15;100132.53;10287970;28;20066;-56
2021/05/27 03:16:55;;;;;;;5.03;3.47;;;;;;;9.41;81.21;100137.00;10271875;28;20050;-58
2021/05/27 03:21:56;;;;;;;4.03;3.63;;;;;;;9.46;81.55;100144.63;10270345;28;20101;-56
2021/05/27 03:26:58;;;;;;;5.32;3.75;;;;;;;9.45;81.70;100141.09;10281918;28;20104;-59
2021/05/27 03:31:59;;;;;;;6.13;3.88;;;;;;;9.43;81.64;100145.69;10285063;28;20082;-57
2021/05/27 03:37:02;;;;;;;4.97;4.47;;;;;;;9.55;81.67;100154.53;10292594;28;20074;-59
2021/05/27 03:42:03;;;;;;;6.45;4.30;;;;;;;9.46;81.22;100140.16;10276570;28;20046;-57
2021/05/27 03:47:05;;;;;;;6.80;5.07;;;;;;;9.40;81.73;100150.38;10290474;28;20074;-60
2021/05/27 03:52:06;;;;;;;5.70;5.13;;;;;;;9.44;82.21;100147.38;10291101;28;20062;-57
2021/05/27 03:57:08;;;;;;;7.22;4.90;;;;;;;9.54;81.43;100155.50;10298507;28;20137;-59
2021/05/27 04:02:09;;;;;;;5.32;4.50;;;;;;;9.58;81.18;100153.44;10271349;28;20066;-58
2021/05/27 04:07:11;;;;;;;5.93;4.88;;;;;;;9.56;82.29;100158.88;10291896;28;20469;-55
2021/05/27 04:17:33;;;;;;;6.72;5.13;;;;;;;9.48;81.56;100164.78;10296025;28;20077;-59
2021/05/27 04:22:35;;;;;;;5.75;5.10;;;;;;;9.38;80.92;100146.06;10307572;28;21837;-57
2021/05/27 04:27:37;;;;;;;7.72;5.05;;;;;;;9.50;81.65;100152.25;10307492;28;20050;-57
2021/05/27 04:38:01;;;;;;;7.00;6.20;;;;;;;9.58;81.24;100164.06;10294466;28;20109;-57
2021/05/27 04:43:02;;;;;;;8.23;6.38;;;;;;;9.54;82.00;100172.28;10298568;28;20077;-58
2021/05/27 04:48:09;;;;;;;9.35;6.07;;;;;;;9.44;81.24;100155.34;10274740;28;20370;-60
2021/05/27 04:53:10;;;;;;;6.70;6.00;;;;;;;9.61;80.75;100171.78;10290008;28;20054;-62
2021/05/27 04:58:12;;;;;;;5.32;4.78;;;;;;;9.66;81.06;100173.13;10289083;28;20085;-57
2021/05/27 05:03:14;;;;;;;7.63;5.57;;;;;;;9.77;79.88;100177.59;10281112;28;20062;-57
2021/05/27 05:08:16;;;;;;;7.60;5.35;;;;;;;9.73;79.66;100189.47;10276569;28;20213;-58
2021/05/27 05:13:20;;;;;;;5.85;5.30;;;;;;;9.75;79.99;100186.69;10293338;28;20043;-54
2021/05/27 05:18:21;;;;;;;7.28;4.97;;;;;;;9.76;79.47;100199.84;10289585;28;20066;-57
2021/05/27 05:23:23;;;;;;;7.20;5.82;;;;;;;9.81;80.09;100181.72;10292975;28;20552;-55
2021/05/27 05:28:24;;;;;;;6.53;5.82;;;;;;;9.84;79.27;100197.44;10293992;28;20054;-57
2021/05/27 05:33:26;;;;;;;5.57;5.07;;;;;;;10.05;79.40;100205.53;10292325;28;20062;-59
2021/05/27 05:38:27;;;;;;;6.25;5.57;;;;;;;10.11;78.28;100209.53;10288914;28;20555;-57
2021/05/27 05:43:28;;;;;;;6.15;4.95;;;;;;;10.29;77.71;100214.34;10289186;28;20086;-59
2021/05/27 05:48:30;;;;;;;6.80;5.50;;;;;;;10.39;77.83;100212.69;10298056;28;20125;-58
2021/05/27 05:53:31;;;;;;;7.53;5.63;;;;;;;10.32;77.04;100224.75;10270626;28;20046;-61
2021/05/27 05:58:33;;;;;;;6.32;5.35;;;;;;;10.29;77.67;100230.31;10282406;28;20084;-60
2021/05/27 06:03:35;;;;;;;6.32;5.78;;;;;;;10.29;77.76;100227.66;10279329;28;20057;-57
2021/05/27 06:08:36;;;;;;;6.43;5.57;;;;;;;10.19;77.75;100233.72;10280188;28;20082;-59
2021/05/27 06:13:38;;;;;;;7.53;5.78;;;;;;;10.30;77.30;100235.53;10273403;28;20073;-54
2021/05/27 06:18:40;;;;;;;7.30;5.18;;;;;;;10.60;76.05;100236.72;10286082;28;20053;-57
2021/05/27 06:23:42;;;;;;;10.95;5.28;;;;;;;10.82;74.54;100234.97;10278784;28;20046;-60
2021/05/27 06:28:43;;;;;;;5.35;4.70;;;;;;;10.92;74.32;100228.75;10266972;28;20042;-56
2021/05/27 06:33:45;;;;;;;7.25;4.40;;;;;;;11.35;72.93;100236.81;10285621;28;20260;-59
2021/05/27 06:38:46;;;;;;;6.15;4.50;;;;;;;11.30;72.11;100247.84;10284151;28;20096;-58
2021/05/27 06:43:49;;;;;;;5.40;3.88;;;;;;;11.14;72.86;100241.16;10283641;28;20779;-60
2021/05/27 06:48:50;;;;;;;6.07;5.40;;;;;;;11.30;71.87;100245.19;10284790;28;20058;-55
2021/05/27 06:53:52;;;;;;;10.48;5.35;;;;;;;11.35;72.67;100235.00;10281245;28;20055;-57
2021/05/27 06:58:54;;;;;;;5.93;5.32;;;;;;;11.27;72.21;100240.13;10281429;28;20144;-58
2021/05/27 07:03:55;;;;;;;5.85;4.82;;;;;;;11.60;71.77;100247.09;10284158;28;20810;-57
2021/05/27 07:08:56;;;;;;;6.53;4.72;;;;;;;11.87;70.57;100255.53;10284577;28;20057;-60
2021/05/27 07:13:58;;;;;;;5.25;4.53;;;;;;;11.77;70.58;100252.78;10270718;28;20555;-58
2021/05/27 07:19:00;;;;;;;5.55;4.32;;;;;;;11.61;70.55;100243.44;10284443;28;20072;-59
2021/05/27 07:24:04;;;;;;;4.63;4.00;;;;;;;11.70;70.78;100251.66;10284029;28;20039;-59
2021/05/27 07:29:05;;;;;;;7.88;3.85;;;;;;;11.87;70.43;100267.03;10274375;28;20561;-60
2021/05/27 07:34:07;;;;;;;5.43;3.90;;;;;;;12.07;70.34;100275.19;10274326;28;20057;-61
2021/05/27 07:39:08;;;;;;;4.70;4.30;;;;;;;11.82;69.92;100256.78;10285618;28;20054;-56
2021/05/27 07:44:10;;;;;;;5.93;3.97;;;;;;;11.66;70.31;100251.91;10286076;28;20755;-58
2021/05/27 07:49:11;;;;;;;6.28;4.10;;;;;;;11.61;70.85;100254.13;10284379;28;20074;-58
2021/05/27 07:54:12;;;;;;;5.20;3.63;;;;;;;11.72;71.00;100261.19;10283228;28;20077;-58
2021/05/27 07:59:14;;;;;;;10.48;4.60;;;;;;;11.60;71.15;100264.91;10283399;28;20079;-62
2021/05/27 08:04:16;;;;;;;4.28;3.60;;;;;;;11.70;71.42;100251.66;10281557;28;20686;-55
2021/05/27 08:09:17;;;;;;;4.13;3.17;;;;;;;11.74;70.73;100248.59;10284116;28;20109;-60
2021/05/27 08:14:19;;;;;;;7.03;3.75;;;;;;;12.13;69.55;100269.31;10281245;28;20066;-60
2021/05/27 08:19:21;;;;;;;7.90;3.75;;;;;;;12.08;69.08;100255.53;10282686;28;20062;-56
2021/05/27 08:24:22;;;;;;;6.03;3.72;;;;;;;11.94;69.66;100262.91;10281667;28;20077;-58
2021/05/27 08:29:24;;;;;;;6.50;3.25;;;;;;;11.87;70.52;100272.38;10268916;28;20074;-59
2021/05/27 08:34:25;;;;;;;6.68;3.20;;;;;;;11.76;69.65;100277.78;10282762;28;20057;-58
2021/05/27 08:39:27;;;;;;;4.85;3.80;;;;;;;11.84;69.92;100265.50;10293850;28;20657;-59
2021/05/27 08:44:28;;;;;;;5.82;3.72;;;;;;;11.93;70.04;100263.03;10305893;28;20057;-58
2021/05/27 08:49:32;;;;;;;4.80;2.75;;;;;;;12.11;68.91;100272.09;10311298;28;20124;-57
2021/05/27 08:54:33;;;;;;;3.53;2.67;;;;;;;11.99;70.13;100275.84;10309552;28;20065;-57
2021/05/27 08:59:35;;;;;;;3.58;3.25;;;;;;;11.97;70.16;100278.66;10301467;28;20070;-58
2021/05/27 09:04:38;;;;;;;6.53;4.75;;;;;;;12.32;69.23;100280.06;10285040;28;20057;-59
2021/05/27 09:09:49;;;;;;;5.53;3.43;;;;;;;12.62;68.03;100286.34;10291125;28;20073;-58
2021/05/27 09:14:50;;;;;;;6.15;3.22;;;;;;;12.75;67.04;100285.28;10307812;28;20141;-56
2021/05/27 09:20:14;;;;;;;4.25;3.03;;;;;;;13.14;66.78;100285.34;10303121;28;20077;-54
2021/05/27 09:25:24;;;;;;;4.97;3.45;;;;;;;13.53;65.17;100296.09;10296311;28;20173;-57
2021/05/27 09:30:26;;;;;;;3.67;2.83;;;;;;;13.95;63.89;100285.03;10301591;28;21817;-61
2021/05/27 09:35:41;;;;;;;5.25;3.45;;;;;;;14.57;61.36;100289.88;10283390;28;20057;-59
2021/05/27 09:40:46;;;;;;;5.40;3.20;;;;;;;14.81;61.10;100292.03;10299261;28;20583;-56
2021/05/27 09:46:08;;;;;;;4.30;3.78;;;;;;;14.66;60.07;100278.28;10286925;28;20050;-60
2021/05/27 09:51:10;;;;;;;4.20;3.20;;;;;;;14.78;58.37;100279.78;10287294;28;20062;-56
2021/05/27 09:56:36;;;;;;;5.13;2.42;;;;;;;15.22;58.82;100275.53;10288108;28;20137;-60
2021/05/27 10:02:19;;;;;;;3.15;2.33;;;;;;;15.54;57.41;100285.72;10289331;28;20034;-56
2021/05/27 10:07:39;;;;;;;4.28;2.65;;;;;;;14.91;58.59;100281.28;10273687;28;20154;-60
2021/05/27 10:13:01;;;;;;;4.40;2.65;;;;;;;14.37;59.07;100284.63;10289726;28;20061;-55
2021/05/27 10:18:04;;;;;;;3.20;2.65;;;;;;;14.24;61.76;100278.75;10272417;28;20071;-59
2021/05/27 10:23:06;;;;;;;3.78;2.40;;;;;;;14.44;61.93;100285.72;10287319;28;20589;-60
2021/05/27 10:28:15;;;;;;;5.97;3.03;;;;;;;15.07;60.71;100286.78;10285729;28;20078;-59
2021/05/27 10:33:20;;;;;;;5.25;2.22;;;;;;;15.13;58.81;100286.19;10282771;28;20070;-61
2021/05/27 10:38:50;;;;;;;3.70;2.45;;;;;;;15.81;56.92;100282.09;10283308;28;20110;-57
2021/05/27 10:44:01;;;;;;;2.35;1.67;;;;;;;16.01;54.40;100271.16;10277304;28;20097;-60
2021/05/27 10:49:02;;;;;;;2.13;1.92;;;;;;;15.98;52.89;100258.03;10287364;28;20072;-60
2021/05/27 10:54:08;;;;;;;3.53;2.20;;;;;;;15.96;53.56;100260.91;10286109;28;20160;-55
2021/05/27 10:59:13;;;;;;;3.25;1.83;;;;;;;16.16;54.36;100272.25;10284274;28;20038;-62
2021/05/27 11:04:28;;;;;;;1.92;1.42;;;;;;;16.40;53.16;100273.38;10285729;28;20558;-60
2021/05/27 11:09:33;;;;;;;1.95;1.75;;;;;;;16.02;53.83;100272.84;10282192;28;20491;-60
2021/05/27 11:14:40;;;;;;;;;;;;;;;15.58;54.32;100279.03;10283717;28;20091;-57
2021/05/27 11:20:28;;;;;;;3.50;1.80;;;;;;;15.45;56.34;100278.59;10282428;28;19934;-55
2021/05/27 11:30:40;;;;;;;1.92;1.70;;;;;;;14.73;60.30;100305.34;10283772;28;20046;-62
2021/05/27 11:35:44;;;;;;;5.30;2.10;;;;;;;14.00;66.59;100320.22;10282069;28;20166;-56
2021/05/27 11:40:52;;;;;;;4.78;2.20;;;;;;;13.43;71.37;100355.72;10298535;28;20061;-58
2021/05/27 11:45:55;;;;;;;5.35;2.53;;;;;;;13.20;74.40;100354.28;10297490;28;20252;-62
2021/05/27 11:51:16;;;;;;;2.83;1.88;;;;;;;13.24;73.92;100353.00;10298460;28;20140;-56
2021/05/27 11:56:54;;;;;;;3.20;2.20;;;;;;;12.81;75.08;100332.81;10299942;28;20057;-55
2021/05/27 12:01:58;;;;;;;1.73;1.55;;;;;;;12.94;74.56;100357.47;10295625;28;20050;-60
2021/05/27 12:07:09;;;;;;;2.13;1.92;;;;;;;12.97;76.78;100349.19;10297472;28;20077;-60
2021/05/27 12:12:24;;;;;;;1.98;1.75;;;;;;;13.54;76.63;100351.25;10298421;28;20111;-57
2021/05/27 12:17:39;;;;;;;2.45;1.42;;;;;;;13.64;73.07;100367.31;10308594;28;20173;-54
2021/05/27 12:22:47;;;;;;;2.13;1.65;;;;;;;13.64;73.84;100364.63;10306138;28;20046;-58
2021/05/27 12:27:50;;;;;;;2.85;1.92;;;;;;;13.30;74.90;100367.66;10293076;28;20129;-56
2021/05/27 12:32:54;;;;;;;4.13;1.97;;;;;;;13.48;73.90;100381.22;10303123;28;20058;-59
2021/05/27 12:37:59;;;;;;;5.78;2.80;;;;;;;13.48;76.07;100378.53;10309910;28;20066;-59
2021/05/27 12:43:03;;;;;;;;;;;;;;;13.27;74.43;100387.50;10294900;28;20050;-59
2021/05/27 12:48:14;;;;;;;2.63;1.23;;;;;;;13.09;76.13;100396.19;10282100;28;20012;-57
2021/05/27 12:53:28;;;;;;;1.83;1.20;;;;;;;13.11;76.01;100400.56;10290283;28;20223;-61
2021/05/27 12:58:36;;;;;;;3.85;2.00;;;;;;;13.37;77.20;100407.09;10287312;28;20117;-60
2021/05/27 13:03:48;;;;;;;2.80;2.10;;;;;;;13.46;78.36;100399.25;10286101;28;20132;-56
2021/05/27 13:09:02;;;;;;;5.38;1.92;;;;;;;13.57;77.35;100405.31;10287890;28;20073;-61
2021/05/27 13:14:17;;;;;;;3.88;1.90;;;;;;;13.65;76.84;100409.97;10288206;28;20117;-56
2021/05/27 13:19:24;;;;;;;2.40;1.73;;;;;;;13.87;77.60;100399.94;10287942;28;20189;-59
2021/05/27 13:24:26;;;;;;;2.55;1.88;;;;;;;13.96;77.22;100393.75;10287753;28;20049;-57
2021/05/27 13:29:43;;;;;;;2.13;1.92;;;;;;;14.09;75.17;100407.69;10289896;28;20129;-60
2021/05/27 13:34:46;;;;;;;2.78;1.80;;;;;;;14.15;74.39;100412.47;10273202;28;20054;-61
2021/05/27 13:39:47;;;;;;;2.22;1.90;;;;;;;14.29;74.79;100413.00;10293757;28;20133;-59
2021/05/27 13:44:48;;;;;;;2.50;2.30;;;;;;;14.64;73.89;100411.56;10307688;28;20142;-60
2021/05/27 13:49:50;;;;;;;3.15;2.35;;;;;;;14.69;72.90;100395.88;10299463;28;20066;-56
2021/05/27 13:54:54;;;;;;;3.03;2.60;;;;;;;14.93;71.92;100419.47;10299799;28;20058;-58
2021/05/27 13:59:55;;;;;;;3.08;2.50;;;;;;;14.67;71.42;100420.13;10299792;28;20220;-60
2021/05/27 14:04:57;;;;;;;3.17;2.55;;;;;;;14.77;71.80;100413.91;10302805;28;20054;-59
2021/05/27 14:09:59;;;;;;;3.15;2.85;;;;;;;14.91;72.67;100393.84;10304653;28;20177;-58
2021/05/27 14:15:01;;;;;;;3.42;2.38;;;;;;;15.04;70.58;100421.09;10299659;28;20053;-57
2021/05/27 14:20:05;;;;;;;4.32;3.33;;;;;;;14.85;69.86;100427.41;10307001;28;20133;-59
2021/05/27 14:25:07;;;;;;;6.45;4.78;;;;;;;14.64;70.24;100416.91;10297852;28;21051;-59
2021/05/27 14:30:10;;;;;;;7.78;5.30;;;;;;;14.81;70.46;100426.84;10279507;28;20537;-60
2021/05/27 14:35:12;;;;;;;3.65;3.20;;;;;;;15.11;70.30;100416.84;10303585;28;20053;-56
2021/05/27 14:40:14;;;;;;;3.40;2.95;;;;;;;15.09;68.42;100429.56;10311338;28;20467;-57
2021/05/27 14:45:17;;;;;;;3.72;2.53;;;;;;;14.60;68.62;100408.28;10297473;28;20053;-59
2021/05/27 14:50:30;;;;;;;3.40;3.08;;;;;;;14.64;71.73;100441.03;10303715;28;20074;-57
2021/05/27 14:55:31;;;;;;;3.78;2.85;;;;;;;14.48;70.30;100450.47;10298955;28;20137;-60
2021/05/27 15:00:33;;;;;;;4.32;3.00;;;;;;;14.35;69.91;100436.53;10298663;28;20145;-56
2021/05/27 15:05:34;;;;;;;3.60;2.95;;;;;;;14.30;70.88;100445.00;10293006;28;20065;-60
2021/05/27 15:10:36;;;;;;;5.78;3.22;;;;;;;14.40;71.53;100444.16;10304632;28;20136;-58
2021/05/27 15:15:38;;;;;;;5.35;3.28;;;;;;;14.39;71.44;100437.94;10306918;28;20065;-59
2021/05/27 15:20:41;;;;;;;4.05;3.15;;;;;;;14.42;71.26;100453.72;10290868;28;20050;-58
2021/05/27 15:25:43;;;;;;;3.38;2.92;;;;;;;14.58;71.30;100453.13;10305554;28;20050;-59
2021/05/27 15:30:45;;;;;;;3.75;2.78;;;;;;;14.59;68.82;100453.97;10289121;28;20106;-58
2021/05/27 15:35:46;;;;;;;3.40;3.10;;;;;;;14.69;69.24;100456.66;10300948;28;20050;-61
2021/05/27 15:40:49;;;;;;;2.92;1.88;;;;;;;14.60;68.86;100445.78;10296213;28;21327;-61
2021/05/27 15:45:51;;;;;;;3.17;2.87;;;;;;;14.54;69.50;100450.88;10273404;28;20410;-61
2021/05/27 15:50:53;;;;;;;2.40;2.15;;;;;;;14.47;69.27;100462.19;10294796;28;20058;-59
2021/05/27 15:55:54;;;;;;;2.45;2.20;;;;;;;14.45;69.63;100453.44;10297114;28;20136;-57
2021/05/27 16:00:55;;;;;;;3.60;2.30;;;;;;;14.59;69.80;100464.69;10296501;28;20124;-58
2021/05/27 16:05:57;;;;;;;3.67;2.58;;;;;;;14.51;69.31;100462.72;10286885;28;20105;-56
2021/05/27 16:10:58;;;;;;;3.08;2.35;;;;;;;14.34;69.77;100445.56;10247150;28;20062;-60
2021/05/27 16:16:00;;;;;;;3.58;2.85;;;;;;;14.43;70.59;100471.47;10282476;28;20050;-59
2021/05/27 16:21:02;;;;;;;3.55;2.92;;;;;;;14.24;69.89;100458.13;10292793;28;20058;-59
2021/05/27 16:26:04;;;;;;;2.53;2.30;;;;;;;14.33;69.94;100470.66;10298063;28;20332;-57
2021/05/27 16:31:09;;;;;;;3.38;2.17;;;;;;;14.30;70.92;100487.00;10286310;28;20488;-58
2021/05/27 16:41:30;;;;;;;3.72;2.75;;;;;;;14.23;70.39;100480.50;10292780;28;20089;-58
2021/05/27 16:46:32;;;;;;;3.65;2.63;;;;;;;14.19;71.21;100473.78;10294001;28;20149;-59
2021/05/27 16:51:34;;;;;;;3.53;2.50;;;;;;;14.11;70.91;100456.59;10291628;28;20137;-57
2021/05/27 16:56:36;;;;;;;2.97;2.70;;;;;;;14.14;71.85;100469.69;10295298;28;20137;-57
2021/05/27 17:01:37;;;;;;;3.42;3.13;;;;;;;14.04;70.99;100470.69;10292867;28;20074;-56
2021/05/27 17:06:39;;;;;;;3.35;2.67;;;;;;;14.06;71.92;100469.53;10292139;28;20145;-60
2021/05/27 17:11:41;;;;;;;4.53;2.90;;;;;;;14.05;71.11;100467.00;10290248;28;20193;-56
2021/05/27 17:16:43;;;;;;;4.75;3.20;;;;;;;13.94;71.14;100476.84;10289420;28;20047;-57
2021/05/27 17:21:44;;;;;;;4.53;3.70;;;;;;;13.98;72.09;100474.75;10292601;28;20133;-58
2021/05/27 17:26:46;;;;;;;5.10;3.60;;;;;;;14.07;72.61;100481.94;10290091;28;20078;-56
2021/05/27 17:31:48;;;;;;;7.45;4.30;;;;;;;14.04;73.16;100478.72;10290097;28;20468;-57
2021/05/27 17:36:49;;;;;;;4.20;3.08;;;;;;;13.97;72.88;100486.44;10288599;28;20552;-58
2021/05/27 17:41:51;;;;;;;4.38;3.60;;;;;;;14.09;74.22;100493.34;10289171;28;20062;-55
2021/05/27 17:46:53;;;;;;;3.58;3.28;;;;;;;14.20;73.73;100488.84;10289907;28;20082;-57
2021/05/27 17:51:55;;;;;;;3.83;3.50;;;;;;;14.16;72.40;100493.63;10291203;28;20530;-59
2021/05/27 17:56:56;;;;;;;4.40;3.15;;;;;;;14.21;72.24;100498.56;10286246;28;20138;-62
2021/05/27 18:01:58;;;;;;;5.05;3.78;;;;;;;14.19;71.45;100503.22;10287922;28;20533;-59
2021/05/27 18:06:59;;;;;;;3.95;3.55;;;;;;;14.02;71.62;100500.25;10290169;28;20288;-58
2021/05/27 18:12:01;;;;;;;12.02;8.63;;;;;;;14.05;71.97;100513.38;10289615;28;20515;-59
2021/05/27 18:17:05;;;;;;;4.32;3.92;;;;;;;14.08;72.15;100515.75;10285400;28;20698;-58
2021/05/27 18:22:07;;;;;;;4.90;4.47;;;;;;;14.08;71.50;100510.41;10284631;28;20058;-55
2021/05/27 18:27:09;;;;;;;4.97;4.35;;;;;;;14.00;72.25;100515.59;10279997;28;20073;-60
2021/05/27 18:32:10;;;;;;;5.03;4.55;;;;;;;14.03;73.19;100528.69;10283573;28;20301;-58
2021/05/27 18:37:12;;;;;;;4.85;4.28;;;;;;;14.05;72.95;100532.09;10286995;28;20133;-58
2021/05/27 18:42:14;;;;;;;5.05;3.85;;;;;;;14.05;71.95;100531.22;10279189;28;20050;-60
2021/05/27 18:47:15;;;;;;;5.05;4.28;;;;;;;14.01;71.06;100533.34;10286407;28;20479;-58
2021/05/27 18:52:19;;;;;;;6.07;4.25;;;;;;;14.00;69.86;100538.84;10283518;28;20102;-60
2021/05/27 18:57:20;;;;;;;5.20;4.03;;;;;;;13.95;69.96;100548.13;10282608;28;20127;-62
2021/05/27 19:02:22;;;;;;;6.70;4.60;;;;;;;13.87;70.34;100528.38;10285609;28;20311;-60
2021/05/27 19:07:23;;;;;;;7.82;4.70;;;;;;;13.88;69.94;100546.16;10283245;28;20113;-58
2021/05/27 19:12:24;;;;;;;5.25;3.88;;;;;;;13.55;69.00;100524.09;10285659;28;20451;-59
2021/05/27 19:17:26;;;;;;;6.28;3.72;;;;;;;13.53;67.03;100544.78;10285568;28;20094;-61
2021/05/27 19:22:27;;;;;;;5.53;3.90;;;;;;;13.52;68.22;100551.94;10282765;28;20471;-58
2021/05/27 19:27:29;;;;;;;5.28;4.00;;;;;;;13.53;68.77;100559.00;10280528;28;20497;-58
2021/05/27 19:32:31;;;;;;;5.50;4.18;;;;;;;13.36;69.20;100549.81;10285118;28;20140;-55
2021/05/27 19:37:33;;;;;;;5.10;4.30;;;;;;;13.33;70.19;100579.44;10285505;28;20460;-59
2021/05/27 19:42:36;;;;;;;5.60;4.65;;;;;;;13.39;70.06;100573.59;10296811;28;20472;-60
2021/05/27 19:47:37;;;;;;;7.30;4.97;;;;;;;13.40;71.41;100585.97;10300010;28;20137;-57
2021/05/27 19:52:40;;;;;;;6.18;4.50;;;;;;;13.26;70.91;100584.47;10299507;28;20052;-57
2021/05/27 19:57:41;;;;;;;5.65;3.58;;;;;;;13.15;68.01;100597.06;10299404;28;20088;-60
2021/05/27 20:02:44;;;;;;;6.18;3.15;;;;;;;12.84;67.09;100605.03;10298424;28;20046;-60
2021/05/27 20:07:45;;;;;;;4.32;2.55;;;;;;;12.81;66.01;100599.94;10280770;28;20128;-56
2021/05/27 20:12:47;;;;;;;3.33;2.28;;;;;;;12.38;67.76;100602.56;10298696;28;20058;-61
2021/05/27 20:17:48;;;;;;;4.70;2.75;;;;;;;12.25;67.61;100609.88;10279893;28;20803;-59
2021/05/27 20:22:50;;;;;;;4.82;3.10;;;;;;;12.14;68.72;100617.91;10299758;28;20081;-55
2021/05/27 20:27:51;;;;;;;4.32;3.90;;;;;;;12.17;68.64;100617.66;10294167;28;20958;-61
2021/05/27 20:32:54;;;;;;;4.70;3.97;;;;;;;12.07;69.02;100630.91;10274858;28;20066;-58
2021/05/27 20:37:55;;;;;;;4.75;3.22;;;;;;;12.07;70.37;100627.38;10286472;28;20105;-61
2021/05/27 20:42:57;;;;;;;4.57;4.18;;;;;;;12.07;70.18;100632.72;10281179;28;20162;-59
2021/05/27 20:47:59;;;;;;;4.53;3.72;;;;;;;12.24;70.31;100637.53;10296817;28;20066;-62
2021/05/27 20:53:03;;;;;;;6.05;4.18;;;;;;;12.14;71.38;100623.25;10306344;28;20053;-63
2021/05/27 20:58:04;;;;;;;6.43;5.05;;;;;;;12.18;71.95;100648.72;10286046;28;20054;-58
2021/05/27 21:03:06;;;;;;;6.50;5.28;;;;;;;12.33;70.80;100639.44;10290479;28;20054;-61
2021/05/27 21:08:07;;;;;;;6.03;4.88;;;;;;;12.42;71.03;100648.53;10285333;28;20074;-56
2021/05/27 21:13:09;;;;;;;5.35;3.60;;;;;;;12.50;70.45;100651.41;10293517;28;20527;-59
2021/05/27 21:18:11;;;;;;;5.55;4.72;;;;;;;12.42;70.57;100651.19;10281093;28;20050;-60
2021/05/27 21:23:13;;;;;;;6.90;4.78;;;;;;;12.48;71.01;100658.72;10286811;28;20155;-61
2021/05/27 21:28:14;;;;;;;5.78;4.32;;;;;;;12.49;71.75;100667.56;10299463;28;20069;-58
2021/05/27 21:33:16;;;;;;;8.10;5.22;;;;;;;12.52;71.33;100677.97;10295424;28;20058;-62
2021/05/27 21:38:18;;;;;;;4.53;3.88;;;;;;;12.42;72.28;100680.56;10296962;28;20061;-56
2021/05/27 21:43:22;;;;;;;5.20;4.50;;;;;;;12.46;70.08;100682.03;10294835;28;20071;-56
2021/05/27 21:48:24;;;;;;;5.45;4.60;;;;;;;12.28;71.20;100681.69;10296223;28;20585;-59
2021/05/27 21:53:25;;;;;;;5.10;2.88;;;;;;;12.25;69.45;100679.28;10292619;28;20081;-59
2021/05/27 21:58:27;;;;;;;4.25;3.15;;;;;;;12.25;70.85;100689.97;10292244;28;20192;-61
2021/05/27 22:03:29;;;;;;;3.92;2.90;;;;;;;12.20;69.49;100686.78;10280149;28;20070;-56
2021/05/27 22:08:30;;;;;;;4.18;2.92;;;;;;;12.22;70.53;100689.34;10282778;28;20070;-58
2021/05/27 22:13:32;;;;;;;4.22;2.72;;;;;;;11.92;69.33;100699.66;10292063;28;20074;-56
2021/05/27 22:18:33;;;;;;;4.38;2.88;;;;;;;11.89;71.48;100710.56;10299099;28;20065;-59
2021/05/27 22:23:35;;;;;;;4.88;3.53;;;;;;;12.06;69.75;100714.59;10278832;28;20070;-61
2021/05/27 22:28:38;;;;;;;4.78;2.83;;;;;;;12.17;70.20;100724.41;10304671;28;20082;-57
2021/05/27 22:33:39;;;;;;;4.50;3.22;;;;;;;12.22;70.59;100726.69;10299162;28;20073;-57
2021/05/27 22:38:41;;;;;;;5.03;3.15;;;;;;;12.11;70.87;100692.88;10291907;28;20128;-57
2021/05/27 22:43:42;;;;;;;3.95;3.53;;;;;;;12.24;69.94;100704.25;10293747;28;20060;-56
2021/05/27 22:48:44;;;;;;;6.35;3.08;;;;;;;12.27;69.82;100712.03;10289662;28;20463;-56
2021/05/27 22:53:45;;;;;;;5.53;3.53;;;;;;;12.16;70.49;100699.53;10295654;28;20531;-56
2021/05/27 22:58:46;;;;;;;4.05;3.45;;;;;;;12.29;71.20;100710.06;10288337;28;20136;-56
2021/05/27 23:03:48;;;;;;;4.00;3.60;;;;;;;12.20;69.70;100729.50;10290255;28;20135;-57
2021/05/27 23:08:49;;;;;;;3.05;2.75;;;;;;;11.91;69.76;100711.28;10288987;28;20129;-59
2021/05/27 23:13:52;;;;;;;4.28;2.58;;;;;;;11.82;69.79;100726.19;10288184;28;20050;-55
2021/05/27 23:18:53;;;;;;;4.80;3.13;;;;;;;11.94;69.67;100724.41;10295599;28;20076;-56
2021/05/27 23:23:55;;;;;;;4.25;3.08;;;;;;;11.91;70.44;100719.28;10289468;28;20559;-59
2021/05/27 23:28:56;;;;;;;4.97;3.10;;;;;;;12.00;69.57;100717.75;10289003;28;20444;-55
2021/05/27 23:33:57;;;;;;;5.57;3.10;;;;;;;12.11;70.47;100722.22;10292126;28;20519;-58
2021/05/27 23:38:59;;;;;;;5.57;3.75;;;;;;;12.18;70.84;100710.09;10295165;28;20491;-59